sensor_id;sensor_type;location;lat;lon;timestamp;P1;durP1;ratioP1;P2;durP2;ratioP2
21876;SDS011;11103;43.788;23.710;2023-02-27T00:00:22;30.20;;;16.80;;
21876;SDS011;11103;43.788;23.710;2023-02-27T00:02:49;26.20;;;15.50;;
21876;SDS011;11103;43.788;23.710;2023-02-27T00:05:15;35.37;;;19.03;;
21876;SDS011;11103;43.788;23.710;2023-02-27T00:07:41;36.10;;;19.97;;
21876;SDS011;11103;43.788;23.710;2023-02-27T00:10:07;24.77;;;14.00;;
21876;SDS011;11103;43.788;23.710;2023-02-27T00:12:35;31.93;;;18.23;;
21876;SDS011;11103;43.788;23.710;2023-02-27T00:15:06;26.53;;;15.23;;
21876;SDS011;11103;43.788;23.710;2023-02-27T00:17:34;23.40;;;14.57;;
21876;SDS011;11103;43.788;23.710;2023-02-27T00:19:59;29.40;;;16.07;;
21876;SDS011;11103;43.788;23.710;2023-02-27T00:22:25;24.93;;;14.37;;
21876;SDS011;11103;43.788;23.710;2023-02-27T00:24:50;26.37;;;15.57;;
21876;SDS011;11103;43.788;23.710;2023-02-27T00:27:16;29.53;;;16.50;;
21876;SDS011;11103;43.788;23.710;2023-02-27T00:29:41;26.93;;;16.80;;
21876;SDS011;11103;43.788;23.710;2023-02-27T00:32:07;24.10;;;14.30;;
21876;SDS011;11103;43.788;23.710;2023-02-27T00:34:32;24.73;;;15.03;;
21876;SDS011;11103;43.788;23.710;2023-02-27T00:36:58;18.97;;;12.57;;
21876;SDS011;11103;43.788;23.710;2023-02-27T00:39:23;21.73;;;12.77;;
21876;SDS011;11103;43.788;23.710;2023-02-27T00:41:48;21.93;;;13.10;;
21876;SDS011;11103;43.788;23.710;2023-02-27T00:44:14;20.43;;;12.60;;
21876;SDS011;11103;43.788;23.710;2023-02-27T00:46:39;22.23;;;13.17;;
21876;SDS011;11103;43.788;23.710;2023-02-27T00:49:05;22.13;;;12.70;;
21876;SDS011;11103;43.788;23.710;2023-02-27T00:51:30;19.27;;;12.33;;
21876;SDS011;11103;43.788;23.710;2023-02-27T00:53:55;19.50;;;11.80;;
21876;SDS011;11103;43.788;23.710;2023-02-27T00:56:21;22.53;;;12.50;;
21876;SDS011;11103;43.788;23.710;2023-02-27T00:58:46;22.43;;;12.70;;
21876;SDS011;11103;43.788;23.710;2023-02-27T01:01:12;19.83;;;12.30;;
21876;SDS011;11103;43.788;23.710;2023-02-27T01:03:38;19.07;;;12.13;;
21876;SDS011;11103;43.788;23.710;2023-02-27T01:06:03;20.43;;;12.30;;
21876;SDS011;11103;43.788;23.710;2023-02-27T01:08:29;22.03;;;12.17;;
21876;SDS011;11103;43.788;23.710;2023-02-27T01:10:55;24.27;;;13.30;;
21876;SDS011;11103;43.788;23.710;2023-02-27T01:13:20;20.43;;;11.90;;
21876;SDS011;11103;43.788;23.710;2023-02-27T01:15:46;21.83;;;12.77;;
21876;SDS011;11103;43.788;23.710;2023-02-27T01:18:12;20.57;;;12.33;;
21876;SDS011;11103;43.788;23.710;2023-02-27T01:20:37;23.57;;;12.60;;
21876;SDS011;11103;43.788;23.710;2023-02-27T01:23:02;23.00;;;13.07;;
21876;SDS011;11103;43.788;23.710;2023-02-27T01:25:28;21.27;;;12.20;;
21876;SDS011;11103;43.788;23.710;2023-02-27T01:27:53;23.60;;;13.20;;
21876;SDS011;11103;43.788;23.710;2023-02-27T01:30:19;19.90;;;12.17;;
21876;SDS011;11103;43.788;23.710;2023-02-27T01:32:45;19.93;;;11.80;;
21876;SDS011;11103;43.788;23.710;2023-02-27T01:35:10;18.90;;;12.40;;
21876;SDS011;11103;43.788;23.710;2023-02-27T01:37:37;21.37;;;12.73;;
21876;SDS011;11103;43.788;23.710;2023-02-27T01:40:02;22.57;;;12.83;;
21876;SDS011;11103;43.788;23.710;2023-02-27T01:42:29;25.40;;;14.60;;
21876;SDS011;11103;43.788;23.710;2023-02-27T01:47:36;22.93;;;13.57;;
21876;SDS011;11103;43.788;23.710;2023-02-27T01:50:04;23.13;;;13.33;;
21876;SDS011;11103;43.788;23.710;2023-02-27T01:52:30;24.43;;;14.17;;
21876;SDS011;11103;43.788;23.710;2023-02-27T01:54:58;24.50;;;14.07;;
21876;SDS011;11103;43.788;23.710;2023-02-27T01:57:24;29.90;;;16.13;;
21876;SDS011;11103;43.788;23.710;2023-02-27T01:59:50;22.43;;;13.53;;
21876;SDS011;11103;43.788;23.710;2023-02-27T02:02:18;23.10;;;14.10;;
21876;SDS011;11103;43.788;23.710;2023-02-27T02:04:49;20.43;;;12.13;;
21876;SDS011;11103;43.788;23.710;2023-02-27T02:07:16;21.23;;;12.93;;
21876;SDS011;11103;43.788;23.710;2023-02-27T02:09:51;18.80;;;12.57;;
21876;SDS011;11103;43.788;23.710;2023-02-27T02:12:21;18.50;;;12.17;;
21876;SDS011;11103;43.788;23.710;2023-02-27T02:14:50;21.60;;;11.97;;
21876;SDS011;11103;43.788;23.710;2023-02-27T02:23:04;23.77;;;13.87;;
21876;SDS011;11103;43.788;23.710;2023-02-27T02:50:35;17.70;;;10.57;;
21876;SDS011;11103;43.788;23.710;2023-02-27T02:55:57;19.00;;;11.40;;
21876;SDS011;11103;43.788;23.710;2023-02-27T03:03:57;17.00;;;10.77;;
21876;SDS011;11103;43.788;23.710;2023-02-27T03:06:31;20.23;;;11.93;;
21876;SDS011;11103;43.788;23.710;2023-02-27T03:09:04;17.47;;;11.83;;
21876;SDS011;11103;43.788;23.710;2023-02-27T03:11:35;17.73;;;11.53;;
21876;SDS011;11103;43.788;23.710;2023-02-27T03:16:53;19.87;;;12.33;;
21876;SDS011;11103;43.788;23.710;2023-02-27T03:19:32;18.70;;;11.60;;
21876;SDS011;11103;43.788;23.710;2023-02-27T03:22:08;20.47;;;11.80;;
21876;SDS011;11103;43.788;23.710;2023-02-27T03:24:38;18.47;;;11.00;;
21876;SDS011;11103;43.788;23.710;2023-02-27T03:27:08;17.77;;;10.73;;
21876;SDS011;11103;43.788;23.710;2023-02-27T03:34:56;14.80;;;9.70;;
21876;SDS011;11103;43.788;23.710;2023-02-27T03:39:56;24.43;;;11.37;;
21876;SDS011;11103;43.788;23.710;2023-02-27T03:42:40;18.70;;;10.23;;
21876;SDS011;11103;43.788;23.710;2023-02-27T03:47:54;18.30;;;10.50;;
21876;SDS011;11103;43.788;23.710;2023-02-27T03:50:20;22.00;;;10.93;;
21876;SDS011;11103;43.788;23.710;2023-02-27T03:52:46;18.73;;;11.57;;
21876;SDS011;11103;43.788;23.710;2023-02-27T03:55:15;19.20;;;11.60;;
21876;SDS011;11103;43.788;23.710;2023-02-27T03:57:43;20.07;;;12.30;;
21876;SDS011;11103;43.788;23.710;2023-02-27T04:00:13;22.60;;;13.70;;
21876;SDS011;11103;43.788;23.710;2023-02-27T04:02:40;21.13;;;12.27;;
21876;SDS011;11103;43.788;23.710;2023-02-27T04:05:08;21.57;;;13.50;;
21876;SDS011;11103;43.788;23.710;2023-02-27T04:07:37;19.30;;;12.77;;
21876;SDS011;11103;43.788;23.710;2023-02-27T04:21:09;23.53;;;12.60;;
21876;SDS011;11103;43.788;23.710;2023-02-27T04:23:45;28.30;;;15.53;;
21876;SDS011;11103;43.788;23.710;2023-02-27T04:26:17;26.13;;;13.93;;
21876;SDS011;11103;43.788;23.710;2023-02-27T04:28:47;26.23;;;15.43;;
21876;SDS011;11103;43.788;23.710;2023-02-27T04:31:27;35.67;;;19.57;;
21876;SDS011;11103;43.788;23.710;2023-02-27T04:34:06;45.50;;;19.07;;
21876;SDS011;11103;43.788;23.710;2023-02-27T04:36:48;49.27;;;20.10;;
21876;SDS011;11103;43.788;23.710;2023-02-27T04:39:31;43.67;;;17.77;;
21876;SDS011;11103;43.788;23.710;2023-02-27T04:42:11;40.33;;;17.50;;
21876;SDS011;11103;43.788;23.710;2023-02-27T04:44:40;31.10;;;15.67;;
21876;SDS011;11103;43.788;23.710;2023-02-27T04:47:08;26.10;;;14.37;;
21876;SDS011;11103;43.788;23.710;2023-02-27T04:49:59;26.43;;;14.50;;
21876;SDS011;11103;43.788;23.710;2023-02-27T04:55:07;45.50;;;18.73;;
21876;SDS011;11103;43.788;23.710;2023-02-27T04:57:39;33.73;;;16.70;;
21876;SDS011;11103;43.788;23.710;2023-02-27T05:00:19;31.93;;;14.80;;
21876;SDS011;11103;43.788;23.710;2023-02-27T05:02:51;37.33;;;18.23;;
21876;SDS011;11103;43.788;23.710;2023-02-27T05:05:22;43.10;;;18.27;;
21876;SDS011;11103;43.788;23.710;2023-02-27T05:07:55;32.90;;;15.30;;
21876;SDS011;11103;43.788;23.710;2023-02-27T05:10:28;34.43;;;17.13;;
21876;SDS011;11103;43.788;23.710;2023-02-27T05:13:27;28.80;;;14.37;;
21876;SDS011;11103;43.788;23.710;2023-02-27T05:18:29;22.63;;;12.83;;
21876;SDS011;11103;43.788;23.710;2023-02-27T05:23:28;26.50;;;14.13;;
21876;SDS011;11103;43.788;23.710;2023-02-27T05:28:52;28.50;;;15.47;;
21876;SDS011;11103;43.788;23.710;2023-02-27T05:36:38;21.27;;;11.97;;
21876;SDS011;11103;43.788;23.710;2023-02-27T05:39:09;22.00;;;13.63;;
21876;SDS011;11103;43.788;23.710;2023-02-27T05:41:38;23.30;;;12.93;;
21876;SDS011;11103;43.788;23.710;2023-02-27T05:44:15;20.70;;;13.03;;
21876;SDS011;11103;43.788;23.710;2023-02-27T05:46:45;20.40;;;12.63;;
21876;SDS011;11103;43.788;23.710;2023-02-27T05:49:19;25.52;;;12.68;;
21876;SDS011;11103;43.788;23.710;2023-02-27T05:51:50;21.10;;;10.70;;
21876;SDS011;11103;43.788;23.710;2023-02-27T05:54:22;22.60;;;11.70;;
21876;SDS011;11103;43.788;23.710;2023-02-27T05:56:56;16.57;;;9.23;;
21876;SDS011;11103;43.788;23.710;2023-02-27T05:59:26;18.53;;;9.43;;
21876;SDS011;11103;43.788;23.710;2023-02-27T06:01:58;17.13;;;10.17;;
21876;SDS011;11103;43.788;23.710;2023-02-27T06:04:24;20.33;;;10.90;;
21876;SDS011;11103;43.788;23.710;2023-02-27T06:06:49;20.17;;;10.03;;
21876;SDS011;11103;43.788;23.710;2023-02-27T06:09:15;17.20;;;8.77;;
21876;SDS011;11103;43.788;23.710;2023-02-27T06:11:41;21.13;;;10.87;;
21876;SDS011;11103;43.788;23.710;2023-02-27T06:14:06;11.03;;;8.10;;
21876;SDS011;11103;43.788;23.710;2023-02-27T06:16:32;13.83;;;8.40;;
21876;SDS011;11103;43.788;23.710;2023-02-27T06:19:02;13.53;;;7.57;;
21876;SDS011;11103;43.788;23.710;2023-02-27T06:21:28;13.90;;;8.30;;
21876;SDS011;11103;43.788;23.710;2023-02-27T06:23:53;13.27;;;8.17;;
21876;SDS011;11103;43.788;23.710;2023-02-27T06:26:18;7.07;;;5.90;;
21876;SDS011;11103;43.788;23.710;2023-02-27T06:28:44;8.87;;;7.10;;
21876;SDS011;11103;43.788;23.710;2023-02-27T06:31:09;7.77;;;6.00;;
21876;SDS011;11103;43.788;23.710;2023-02-27T06:33:35;8.70;;;6.60;;
21876;SDS011;11103;43.788;23.710;2023-02-27T06:36:00;14.30;;;8.47;;
21876;SDS011;11103;43.788;23.710;2023-02-27T06:38:25;15.33;;;9.00;;
21876;SDS011;11103;43.788;23.710;2023-02-27T06:40:51;13.43;;;8.47;;
21876;SDS011;11103;43.788;23.710;2023-02-27T06:43:16;11.83;;;7.73;;
21876;SDS011;11103;43.788;23.710;2023-02-27T06:45:42;18.93;;;11.10;;
21876;SDS011;11103;43.788;23.710;2023-02-27T06:48:07;13.47;;;8.17;;
21876;SDS011;11103;43.788;23.710;2023-02-27T06:50:33;20.63;;;11.17;;
21876;SDS011;11103;43.788;23.710;2023-02-27T06:52:59;14.20;;;8.13;;
21876;SDS011;11103;43.788;23.710;2023-02-27T06:55:24;14.17;;;8.07;;
21876;SDS011;11103;43.788;23.710;2023-02-27T06:57:50;10.77;;;7.63;;
21876;SDS011;11103;43.788;23.710;2023-02-27T07:00:16;10.47;;;7.43;;
21876;SDS011;11103;43.788;23.710;2023-02-27T07:02:42;11.50;;;8.17;;
21876;SDS011;11103;43.788;23.710;2023-02-27T07:05:08;8.50;;;6.73;;
21876;SDS011;11103;43.788;23.710;2023-02-27T07:07:35;11.20;;;7.43;;
21876;SDS011;11103;43.788;23.710;2023-02-27T07:10:01;12.30;;;7.97;;
21876;SDS011;11103;43.788;23.710;2023-02-27T07:12:26;9.40;;;7.50;;
21876;SDS011;11103;43.788;23.710;2023-02-27T07:14:51;9.60;;;7.70;;
21876;SDS011;11103;43.788;23.710;2023-02-27T07:17:17;8.83;;;7.53;;
21876;SDS011;11103;43.788;23.710;2023-02-27T07:19:42;8.17;;;6.73;;
21876;SDS011;11103;43.788;23.710;2023-02-27T07:22:09;8.03;;;6.73;;
21876;SDS011;11103;43.788;23.710;2023-02-27T07:24:36;8.43;;;7.27;;
21876;SDS011;11103;43.788;23.710;2023-02-27T07:27:01;9.27;;;7.20;;
21876;SDS011;11103;43.788;23.710;2023-02-27T07:29:26;8.70;;;7.27;;
21876;SDS011;11103;43.788;23.710;2023-02-27T07:31:52;8.27;;;6.83;;
21876;SDS011;11103;43.788;23.710;2023-02-27T07:34:17;10.03;;;8.07;;
21876;SDS011;11103;43.788;23.710;2023-02-27T07:36:43;9.80;;;7.93;;
21876;SDS011;11103;43.788;23.710;2023-02-27T07:39:08;8.93;;;7.37;;
21876;SDS011;11103;43.788;23.710;2023-02-27T07:41:36;8.80;;;7.40;;
21876;SDS011;11103;43.788;23.710;2023-02-27T07:44:01;10.53;;;6.83;;
21876;SDS011;11103;43.788;23.710;2023-02-27T07:46:27;8.33;;;7.10;;
21876;SDS011;11103;43.788;23.710;2023-02-27T07:48:52;8.47;;;7.20;;
21876;SDS011;11103;43.788;23.710;2023-02-27T07:51:18;9.03;;;7.57;;
21876;SDS011;11103;43.788;23.710;2023-02-27T07:53:43;12.27;;;9.30;;
21876;SDS011;11103;43.788;23.710;2023-02-27T07:56:09;9.13;;;7.33;;
21876;SDS011;11103;43.788;23.710;2023-02-27T07:58:34;10.60;;;8.13;;
21876;SDS011;11103;43.788;23.710;2023-02-27T08:01:00;14.10;;;9.30;;
21876;SDS011;11103;43.788;23.710;2023-02-27T08:03:25;10.60;;;7.83;;
21876;SDS011;11103;43.788;23.710;2023-02-27T08:05:50;9.07;;;7.30;;
21876;SDS011;11103;43.788;23.710;2023-02-27T08:08:16;13.30;;;9.17;;
21876;SDS011;11103;43.788;23.710;2023-02-27T08:10:41;9.93;;;7.03;;
21876;SDS011;11103;43.788;23.710;2023-02-27T08:13:07;12.43;;;8.43;;
21876;SDS011;11103;43.788;23.710;2023-02-27T08:15:32;10.83;;;8.03;;
21876;SDS011;11103;43.788;23.710;2023-02-27T08:17:58;14.30;;;9.50;;
21876;SDS011;11103;43.788;23.710;2023-02-27T08:20:23;35.77;;;14.33;;
21876;SDS011;11103;43.788;23.710;2023-02-27T08:22:49;12.40;;;8.00;;
21876;SDS011;11103;43.788;23.710;2023-02-27T08:25:14;13.77;;;8.77;;
21876;SDS011;11103;43.788;23.710;2023-02-27T08:27:40;13.47;;;8.67;;
21876;SDS011;11103;43.788;23.710;2023-02-27T08:30:06;18.50;;;9.50;;
21876;SDS011;11103;43.788;23.710;2023-02-27T08:32:33;18.07;;;9.80;;
21876;SDS011;11103;43.788;23.710;2023-02-27T08:34:59;16.53;;;9.80;;
21876;SDS011;11103;43.788;23.710;2023-02-27T08:37:24;33.93;;;14.20;;
21876;SDS011;11103;43.788;23.710;2023-02-27T08:39:50;25.23;;;11.20;;
21876;SDS011;11103;43.788;23.710;2023-02-27T08:42:15;27.77;;;12.73;;
21876;SDS011;11103;43.788;23.710;2023-02-27T08:44:41;23.53;;;11.93;;
21876;SDS011;11103;43.788;23.710;2023-02-27T08:47:06;19.50;;;10.70;;
21876;SDS011;11103;43.788;23.710;2023-02-27T08:49:32;23.50;;;11.70;;
21876;SDS011;11103;43.788;23.710;2023-02-27T08:51:57;33.53;;;14.20;;
21876;SDS011;11103;43.788;23.710;2023-02-27T08:54:23;21.37;;;12.07;;
21876;SDS011;11103;43.788;23.710;2023-02-27T08:56:48;21.87;;;12.57;;
21876;SDS011;11103;43.788;23.710;2023-02-27T08:59:14;31.20;;;14.27;;
21876;SDS011;11103;43.788;23.710;2023-02-27T09:01:39;19.80;;;11.60;;
21876;SDS011;11103;43.788;23.710;2023-02-27T09:04:05;17.57;;;10.57;;
21876;SDS011;11103;43.788;23.710;2023-02-27T09:06:31;13.07;;;9.03;;
21876;SDS011;11103;43.788;23.710;2023-02-27T09:08:59;19.00;;;11.90;;
21876;SDS011;11103;43.788;23.710;2023-02-27T09:11:25;18.67;;;10.93;;
21876;SDS011;11103;43.788;23.710;2023-02-27T09:13:52;30.47;;;15.00;;
21876;SDS011;11103;43.788;23.710;2023-02-27T09:16:19;17.07;;;10.77;;
21876;SDS011;11103;43.788;23.710;2023-02-27T09:18:45;13.67;;;9.57;;
21876;SDS011;11103;43.788;23.710;2023-02-27T09:21:11;17.23;;;10.87;;
21876;SDS011;11103;43.788;23.710;2023-02-27T09:23:37;25.13;;;13.93;;
21876;SDS011;11103;43.788;23.710;2023-02-27T09:26:03;18.90;;;11.50;;
21876;SDS011;11103;43.788;23.710;2023-02-27T09:28:29;21.27;;;12.93;;
21876;SDS011;11103;43.788;23.710;2023-02-27T09:30:58;19.83;;;12.00;;
21876;SDS011;11103;43.788;23.710;2023-02-27T09:33:25;17.53;;;11.83;;
21876;SDS011;11103;43.788;23.710;2023-02-27T09:35:52;16.57;;;10.80;;
21876;SDS011;11103;43.788;23.710;2023-02-27T09:38:18;19.70;;;12.30;;
21876;SDS011;11103;43.788;23.710;2023-02-27T09:40:43;21.53;;;14.53;;
21876;SDS011;11103;43.788;23.710;2023-02-27T09:45:59;16.23;;;12.03;;
21876;SDS011;11103;43.788;23.710;2023-02-27T09:51:05;15.73;;;11.70;;
21876;SDS011;11103;43.788;23.710;2023-02-27T09:53:32;18.47;;;13.30;;
21876;SDS011;11103;43.788;23.710;2023-02-27T09:56:22;15.97;;;12.00;;
21876;SDS011;11103;43.788;23.710;2023-02-27T10:07:17;14.60;;;11.07;;
21876;SDS011;11103;43.788;23.710;2023-02-27T10:23:11;19.17;;;11.50;;
21876;SDS011;11103;43.788;23.710;2023-02-27T10:25:42;15.17;;;10.93;;
21876;SDS011;11103;43.788;23.710;2023-02-27T10:28:13;12.83;;;9.13;;
21876;SDS011;11103;43.788;23.710;2023-02-27T10:30:40;14.13;;;10.03;;
21876;SDS011;11103;43.788;23.710;2023-02-27T10:33:24;16.00;;;10.70;;
21876;SDS011;11103;43.788;23.710;2023-02-27T10:35:50;11.93;;;9.37;;
21876;SDS011;11103;43.788;23.710;2023-02-27T10:40:44;15.70;;;10.67;;
21876;SDS011;11103;43.788;23.710;2023-02-27T10:43:15;12.13;;;8.60;;
21876;SDS011;11103;43.788;23.710;2023-02-27T10:45:43;17.70;;;11.63;;
21876;SDS011;11103;43.788;23.710;2023-02-27T10:48:09;17.93;;;12.17;;
21876;SDS011;11103;43.788;23.710;2023-02-27T10:50:36;16.10;;;11.50;;
21876;SDS011;11103;43.788;23.710;2023-02-27T10:53:06;16.80;;;11.03;;
21876;SDS011;11103;43.788;23.710;2023-02-27T10:55:44;14.30;;;10.90;;
21876;SDS011;11103;43.788;23.710;2023-02-27T10:58:21;16.93;;;11.83;;
21876;SDS011;11103;43.788;23.710;2023-02-27T11:03:27;12.93;;;9.80;;
21876;SDS011;11103;43.788;23.710;2023-02-27T11:06:01;15.63;;;10.87;;
21876;SDS011;11103;43.788;23.710;2023-02-27T11:08:30;21.70;;;12.47;;
21876;SDS011;11103;43.788;23.710;2023-02-27T11:13:31;11.93;;;8.83;;
21876;SDS011;11103;43.788;23.710;2023-02-27T11:16:05;15.97;;;11.00;;
21876;SDS011;11103;43.788;23.710;2023-02-27T11:18:36;25.03;;;15.27;;
21876;SDS011;11103;43.788;23.710;2023-02-27T11:21:08;13.03;;;9.73;;
21876;SDS011;11103;43.788;23.710;2023-02-27T11:23:37;16.37;;;9.97;;
21876;SDS011;11103;43.788;23.710;2023-02-27T11:26:18;16.17;;;10.37;;
21876;SDS011;11103;43.788;23.710;2023-02-27T11:29:02;13.70;;;10.00;;
21876;SDS011;11103;43.788;23.710;2023-02-27T11:31:27;12.30;;;9.67;;
21876;SDS011;11103;43.788;23.710;2023-02-27T11:33:54;13.63;;;10.17;;
21876;SDS011;11103;43.788;23.710;2023-02-27T11:36:22;14.57;;;9.77;;
21876;SDS011;11103;43.788;23.710;2023-02-27T11:39:02;12.07;;;8.80;;
21876;SDS011;11103;43.788;23.710;2023-02-27T11:41:33;17.57;;;11.87;;
21876;SDS011;11103;43.788;23.710;2023-02-27T11:44:00;13.93;;;9.90;;
21876;SDS011;11103;43.788;23.710;2023-02-27T11:46:27;16.50;;;10.40;;
21876;SDS011;11103;43.788;23.710;2023-02-27T11:49:08;12.80;;;9.07;;
21876;SDS011;11103;43.788;23.710;2023-02-27T12:07:26;11.27;;;8.30;;
21876;SDS011;11103;43.788;23.710;2023-02-27T12:12:30;12.10;;;9.10;;
21876;SDS011;11103;43.788;23.710;2023-02-27T12:15:09;12.70;;;8.40;;
21876;SDS011;11103;43.788;23.710;2023-02-27T12:18:19;8.80;;;7.30;;
21876;SDS011;11103;43.788;23.710;2023-02-27T12:20:47;10.87;;;7.80;;
21876;SDS011;11103;43.788;23.710;2023-02-27T12:23:39;12.53;;;7.57;;
21876;SDS011;11103;43.788;23.710;2023-02-27T12:26:13;7.50;;;6.13;;
21876;SDS011;11103;43.788;23.710;2023-02-27T12:28:59;8.17;;;6.97;;
21876;SDS011;11103;43.788;23.710;2023-02-27T12:31:51;10.00;;;7.27;;
21876;SDS011;11103;43.788;23.710;2023-02-27T12:34:30;7.33;;;6.10;;
21876;SDS011;11103;43.788;23.710;2023-02-27T12:37:01;10.90;;;7.63;;
21876;SDS011;11103;43.788;23.710;2023-02-27T12:39:48;9.90;;;7.90;;
21876;SDS011;11103;43.788;23.710;2023-02-27T12:55:53;8.20;;;6.43;;
21876;SDS011;11103;43.788;23.710;2023-02-27T13:01:05;10.47;;;8.37;;
21876;SDS011;11103;43.788;23.710;2023-02-27T13:04:06;9.07;;;7.40;;
21876;SDS011;11103;43.788;23.710;2023-02-27T13:09:57;11.27;;;7.60;;
21876;SDS011;11103;43.788;23.710;2023-02-27T13:12:35;10.97;;;8.13;;
21876;SDS011;11103;43.788;23.710;2023-02-27T13:15:02;11.53;;;8.57;;
21876;SDS011;11103;43.788;23.710;2023-02-27T13:17:38;14.40;;;8.83;;
21876;SDS011;11103;43.788;23.710;2023-02-27T13:25:32;8.83;;;6.90;;
21876;SDS011;11103;43.788;23.710;2023-02-27T13:28:06;8.87;;;7.40;;
21876;SDS011;11103;43.788;23.710;2023-02-27T13:30:40;8.80;;;7.00;;
21876;SDS011;11103;43.788;23.710;2023-02-27T13:38:31;10.93;;;6.90;;
21876;SDS011;11103;43.788;23.710;2023-02-27T13:43:49;9.77;;;6.90;;
21876;SDS011;11103;43.788;23.710;2023-02-27T14:04:36;9.57;;;7.60;;
21876;SDS011;11103;43.788;23.710;2023-02-27T14:07:12;9.43;;;7.50;;
21876;SDS011;11103;43.788;23.710;2023-02-27T14:09:43;11.37;;;8.77;;
21876;SDS011;11103;43.788;23.710;2023-02-27T14:12:28;42.70;;;19.07;;
21876;SDS011;11103;43.788;23.710;2023-02-27T14:14:55;41.83;;;15.30;;
21876;SDS011;11103;43.788;23.710;2023-02-27T14:17:43;99.53;;;52.17;;
21876;SDS011;11103;43.788;23.710;2023-02-27T14:25:58;13.07;;;8.03;;
21876;SDS011;11103;43.788;23.710;2023-02-27T14:28:48;13.40;;;9.27;;
21876;SDS011;11103;43.788;23.710;2023-02-27T14:31:23;13.67;;;8.77;;
21876;SDS011;11103;43.788;23.710;2023-02-27T14:33:52;13.77;;;9.70;;
21876;SDS011;11103;43.788;23.710;2023-02-27T14:36:21;12.13;;;8.23;;
21876;SDS011;11103;43.788;23.710;2023-02-27T14:38:49;11.33;;;8.27;;
21876;SDS011;11103;43.788;23.710;2023-02-27T14:43:46;26.53;;;13.97;;
21876;SDS011;11103;43.788;23.710;2023-02-27T14:46:21;13.97;;;9.87;;
21876;SDS011;11103;43.788;23.710;2023-02-27T14:48:53;16.23;;;11.00;;
21876;SDS011;11103;43.788;23.710;2023-02-27T14:51:20;22.33;;;12.33;;
21876;SDS011;11103;43.788;23.710;2023-02-27T14:53:58;21.20;;;11.80;;
21876;SDS011;11103;43.788;23.710;2023-02-27T14:56:25;15.93;;;10.23;;
21876;SDS011;11103;43.788;23.710;2023-02-27T14:58:50;11.93;;;9.10;;
21876;SDS011;11103;43.788;23.710;2023-02-27T15:01:18;16.53;;;9.90;;
21876;SDS011;11103;43.788;23.710;2023-02-27T15:03:47;23.57;;;10.63;;
21876;SDS011;11103;43.788;23.710;2023-02-27T15:06:19;23.20;;;10.70;;
21876;SDS011;11103;43.788;23.710;2023-02-27T15:08:50;15.47;;;9.60;;
21876;SDS011;11103;43.788;23.710;2023-02-27T15:11:21;11.83;;;8.83;;
21876;SDS011;11103;43.788;23.710;2023-02-27T15:13:56;12.90;;;9.47;;
21876;SDS011;11103;43.788;23.710;2023-02-27T15:18:54;11.73;;;8.87;;
21876;SDS011;11103;43.788;23.710;2023-02-27T15:21:23;12.07;;;8.70;;
21876;SDS011;11103;43.788;23.710;2023-02-27T15:23:56;13.83;;;9.50;;
21876;SDS011;11103;43.788;23.710;2023-02-27T15:26:23;18.63;;;9.97;;
21876;SDS011;11103;43.788;23.710;2023-02-27T15:28:51;13.77;;;9.73;;
21876;SDS011;11103;43.788;23.710;2023-02-27T15:31:18;15.80;;;10.80;;
21876;SDS011;11103;43.788;23.710;2023-02-27T15:33:47;13.97;;;9.40;;
21876;SDS011;11103;43.788;23.710;2023-02-27T15:36:20;14.33;;;10.63;;
21876;SDS011;11103;43.788;23.710;2023-02-27T15:44:16;15.97;;;10.97;;
21876;SDS011;11103;43.788;23.710;2023-02-27T15:46:44;18.97;;;12.70;;
21876;SDS011;11103;43.788;23.710;2023-02-27T15:49:14;18.97;;;12.40;;
21876;SDS011;11103;43.788;23.710;2023-02-27T15:51:42;17.77;;;12.20;;
21876;SDS011;11103;43.788;23.710;2023-02-27T15:54:08;17.03;;;11.23;;
21876;SDS011;11103;43.788;23.710;2023-02-27T15:56:34;17.00;;;10.07;;
21876;SDS011;11103;43.788;23.710;2023-02-27T15:59:02;14.93;;;9.47;;
21876;SDS011;11103;43.788;23.710;2023-02-27T16:01:29;11.97;;;9.27;;
21876;SDS011;11103;43.788;23.710;2023-02-27T16:03:59;14.70;;;9.93;;
21876;SDS011;11103;43.788;23.710;2023-02-27T16:06:32;16.80;;;11.00;;
21876;SDS011;11103;43.788;23.710;2023-02-27T16:09:04;17.30;;;10.27;;
21876;SDS011;11103;43.788;23.710;2023-02-27T16:11:32;15.87;;;10.30;;
21876;SDS011;11103;43.788;23.710;2023-02-27T16:13:59;15.03;;;10.30;;
21876;SDS011;11103;43.788;23.710;2023-02-27T16:16:30;16.47;;;11.17;;
21876;SDS011;11103;43.788;23.710;2023-02-27T16:24:49;18.13;;;12.50;;
21876;SDS011;11103;43.788;23.710;2023-02-27T16:27:22;17.93;;;12.53;;
21876;SDS011;11103;43.788;23.710;2023-02-27T16:29:53;19.40;;;11.53;;
21876;SDS011;11103;43.788;23.710;2023-02-27T16:34:45;24.20;;;13.60;;
21876;SDS011;11103;43.788;23.710;2023-02-27T16:37:21;20.67;;;13.37;;
21876;SDS011;11103;43.788;23.710;2023-02-27T16:39:51;21.50;;;14.20;;
21876;SDS011;11103;43.788;23.710;2023-02-27T16:42:18;24.47;;;14.00;;
21876;SDS011;11103;43.788;23.710;2023-02-27T16:44:44;23.67;;;13.90;;
21876;SDS011;11103;43.788;23.710;2023-02-27T16:47:09;23.40;;;14.60;;
21876;SDS011;11103;43.788;23.710;2023-02-27T16:49:34;24.13;;;14.57;;
21876;SDS011;11103;43.788;23.710;2023-02-27T16:52:00;46.67;;;24.93;;
21876;SDS011;11103;43.788;23.710;2023-02-27T16:54:27;28.17;;;16.23;;
21876;SDS011;11103;43.788;23.710;2023-02-27T16:56:52;26.30;;;15.93;;
21876;SDS011;11103;43.788;23.710;2023-02-27T17:01:54;26.27;;;16.60;;
21876;SDS011;11103;43.788;23.710;2023-02-27T17:04:21;48.43;;;21.50;;
21876;SDS011;11103;43.788;23.710;2023-02-27T17:06:47;32.20;;;16.83;;
21876;SDS011;11103;43.788;23.710;2023-02-27T17:09:12;34.63;;;19.13;;
21876;SDS011;11103;43.788;23.710;2023-02-27T17:11:37;28.37;;;16.77;;
21876;SDS011;11103;43.788;23.710;2023-02-27T17:14:03;35.43;;;18.83;;
21876;SDS011;11103;43.788;23.710;2023-02-27T17:16:28;106.07;;;37.00;;
21876;SDS011;11103;43.788;23.710;2023-02-27T17:18:54;42.27;;;20.77;;
21876;SDS011;11103;43.788;23.710;2023-02-27T17:21:19;65.93;;;31.93;;
21876;SDS011;11103;43.788;23.710;2023-02-27T17:23:45;55.10;;;29.40;;
21876;SDS011;11103;43.788;23.710;2023-02-27T17:26:11;51.47;;;27.20;;
21876;SDS011;11103;43.788;23.710;2023-02-27T17:28:37;57.50;;;29.00;;
21876;SDS011;11103;43.788;23.710;2023-02-27T17:31:12;44.47;;;23.73;;
21876;SDS011;11103;43.788;23.710;2023-02-27T17:33:39;35.90;;;21.00;;
21876;SDS011;11103;43.788;23.710;2023-02-27T17:36:05;42.17;;;22.63;;
21876;SDS011;11103;43.788;23.710;2023-02-27T17:38:33;44.17;;;22.10;;
21876;SDS011;11103;43.788;23.710;2023-02-27T17:40:58;41.30;;;24.27;;
21876;SDS011;11103;43.788;23.710;2023-02-27T17:43:29;40.30;;;22.93;;
21876;SDS011;11103;43.788;23.710;2023-02-27T17:45:54;40.63;;;23.43;;
21876;SDS011;11103;43.788;23.710;2023-02-27T17:48:21;37.50;;;22.07;;
21876;SDS011;11103;43.788;23.710;2023-02-27T17:50:47;38.70;;;21.60;;
21876;SDS011;11103;43.788;23.710;2023-02-27T17:53:12;36.50;;;20.67;;
21876;SDS011;11103;43.788;23.710;2023-02-27T17:55:39;33.40;;;19.77;;
21876;SDS011;11103;43.788;23.710;2023-02-27T17:58:05;51.97;;;28.27;;